createdAt,value
2023-01-17T00:08:07.891Z,100.00
2023-01-17T00:15:33.907Z,100.00
2023-01-17T00:20:48.114Z,100.00
2023-01-17T00:23:05.635Z,100.00
2023-01-17T00:27:00.525Z,100.00
2023-01-17T00:42:29.052Z,100.00
2023-01-17T00:45:18.998Z,100.00
2023-01-17T00:48:06.992Z,100.00
2023-01-17T00:50:56.400Z,100.00
2023-01-17T00:53:44.672Z,100.00
2023-01-17T00:56:35.427Z,100.00
2023-01-17T00:59:28.277Z,100.00
2023-01-17T01:02:20.289Z,100.00
2023-01-17T01:05:11.553Z,100.00
2023-01-17T01:08:02.611Z,100.00
2023-01-17T01:10:57.999Z,100.00
2023-01-17T01:13:49.809Z,100.00
2023-01-17T01:16:41.904Z,100.00
2023-01-17T01:19:34.029Z,100.00
2023-01-17T01:22:27.097Z,100.00
2023-01-17T01:25:24.234Z,100.00
2023-01-17T01:28:30.786Z,100.00
2023-01-17T01:31:24.841Z,100.00
2023-01-17T01:33:58.346Z,100.00
2023-01-17T01:36:34.180Z,100.00
2023-01-17T01:39:07.859Z,100.00
2023-01-17T01:41:43.750Z,100.00
2023-01-17T01:45:11.361Z,100.00
2023-01-17T01:47:44.569Z,100.00
2023-01-17T01:50:21.493Z,100.00
2023-01-17T01:52:56.297Z,100.00
2023-01-17T01:55:31.636Z,100.00
2023-01-17T01:58:06.773Z,100.00
2023-01-17T02:00:38.389Z,100.00
2023-01-17T02:03:13.136Z,100.00
2023-01-17T02:05:43.889Z,100.00
2023-01-17T02:08:45.268Z,100.00
2023-01-17T02:14:57.372Z,100.00
2023-01-17T02:17:57.470Z,100.00
2023-01-17T02:20:29.154Z,100.00
2023-01-17T02:23:44.586Z,100.00
2023-01-17T02:27:02.757Z,100.00
2023-01-17T02:29:50.206Z,100.00
2023-01-17T02:33:03.037Z,100.00
2023-01-17T02:35:38.507Z,100.00
2023-01-17T02:38:42.095Z,100.00
2023-01-17T02:41:20.689Z,100.00
2023-01-17T02:43:54.624Z,100.00
2023-01-17T02:46:23.901Z,100.00
2023-01-17T02:48:54.389Z,100.00
2023-01-17T02:51:29.992Z,100.00
2023-01-17T02:54:25.084Z,100.00
2023-01-17T02:57:11.799Z,100.00
2023-01-17T02:59:56.121Z,100.00
2023-01-17T03:02:29.075Z,100.00
2023-01-17T03:05:45.727Z,100.00
2023-01-17T03:08:16.405Z,100.00
2023-01-17T03:10:46.272Z,100.00
2023-01-17T03:13:16.106Z,100.00
2023-01-17T03:15:44.642Z,100.00
2023-01-17T03:18:17.398Z,100.00
2023-01-17T03:20:47.275Z,100.00
2023-01-17T03:23:15.848Z,100.00
2023-01-17T03:25:45.007Z,100.00
2023-01-17T03:28:13.693Z,100.00
2023-01-17T03:30:43.044Z,100.00
2023-01-17T03:33:11.713Z,100.00
2023-01-17T03:35:40.536Z,100.00
2023-01-17T03:38:09.588Z,100.00
2023-01-17T03:40:41.165Z,100.00
2023-01-17T03:43:12.568Z,100.00
2023-01-17T03:45:47.851Z,100.00
2023-01-17T03:48:34.595Z,100.00
2023-01-17T03:51:19.689Z,100.00
2023-01-17T03:53:52.931Z,100.00
2023-01-17T03:56:26.127Z,100.00
2023-01-17T03:58:59.697Z,100.00
2023-01-17T04:01:31.281Z,100.00
2023-01-17T04:04:02.181Z,100.00
2023-01-17T04:06:33.069Z,100.00
2023-01-17T04:09:04.437Z,100.00
2023-01-17T04:11:35.486Z,100.00
2023-01-17T04:14:04.880Z,100.00
2023-01-17T04:16:34.272Z,100.00
2023-01-17T04:19:03.557Z,100.00
2023-01-17T04:21:33.474Z,100.00
2023-01-17T04:24:04.423Z,100.00
2023-01-17T04:26:34.433Z,100.00
2023-01-17T04:29:04.419Z,100.00
2023-01-17T04:31:34.904Z,100.00
2023-01-17T04:34:04.617Z,100.00
2023-01-17T04:36:35.089Z,100.00
2023-01-17T04:39:05.402Z,100.00
2023-01-17T04:41:36.200Z,100.00
2023-01-17T04:44:06.724Z,100.00
2023-01-17T04:46:38.854Z,100.00
2023-01-17T04:49:09.964Z,100.00
2023-01-17T04:51:43.047Z,100.00
2023-01-17T04:54:14.473Z,100.00
2023-01-17T04:56:44.774Z,100.00
2023-01-17T04:59:16.229Z,100.00
2023-01-17T05:01:46.578Z,100.00
2023-01-17T05:04:17.278Z,100.00
2023-01-17T05:06:48.214Z,100.00
2023-01-17T05:09:18.352Z,100.00
2023-01-17T05:11:53.451Z,100.00
2023-01-17T05:14:28.978Z,100.00
2023-01-17T05:17:04.294Z,100.00
2023-01-17T05:19:48.074Z,100.00
2023-01-17T05:25:32.975Z,100.00
2023-01-17T05:28:12.178Z,100.00
2023-01-17T05:30:45.720Z,100.00
2023-01-17T05:33:14.688Z,100.00
2023-01-17T05:35:43.894Z,100.00
2023-01-17T05:38:13.426Z,100.00
2023-01-17T05:40:43.442Z,100.00
2023-01-17T05:43:16.508Z,100.00
2023-01-17T05:45:49.962Z,100.00
2023-01-17T05:48:19.404Z,100.00
2023-01-17T05:50:47.837Z,100.00
2023-01-17T05:53:16.814Z,100.00
2023-01-17T05:55:45.582Z,100.00
2023-01-17T05:58:22.780Z,100.00
2023-01-17T06:00:51.163Z,100.00
2023-01-17T06:03:18.702Z,100.00
2023-01-17T06:05:47.243Z,100.00
2023-01-17T06:08:15.758Z,100.00
2023-01-17T06:10:44.221Z,100.00
2023-01-17T06:13:20.453Z,100.00
2023-01-17T06:15:48.136Z,100.00
2023-01-17T06:18:18.030Z,100.00
2023-01-17T06:20:46.333Z,100.00
2023-01-17T06:23:19.551Z,100.00
2023-01-17T06:25:48.189Z,100.00
2023-01-17T06:28:21.809Z,100.00
2023-01-17T06:30:54.729Z,100.00
2023-01-17T06:33:23.766Z,100.00
2023-01-17T06:35:53.522Z,100.00
2023-01-17T06:38:25.357Z,100.00
2023-01-17T06:40:56.417Z,100.00
2023-01-17T06:43:25.642Z,100.00
2023-01-17T06:45:56.097Z,100.00
2023-01-17T06:48:24.455Z,100.00
2023-01-17T06:50:52.566Z,100.00
2023-01-17T06:53:23.656Z,100.00
2023-01-17T06:55:57.199Z,100.00
2023-01-17T06:58:25.493Z,100.00
2023-01-17T07:00:53.077Z,100.00
2023-01-17T07:03:24.158Z,100.00
2023-01-17T07:05:52.880Z,100.00
2023-01-17T07:08:21.109Z,100.00
2023-01-17T07:10:49.391Z,100.00
2023-01-17T07:13:17.901Z,100.00
2023-01-17T07:15:47.285Z,100.00
2023-01-17T07:18:20.364Z,100.00
2023-01-17T07:20:50.391Z,100.00
2023-01-17T07:23:19.036Z,100.00
2023-01-17T07:25:55.339Z,100.00
2023-01-17T07:28:24.995Z,100.00
2023-01-17T07:30:54.534Z,100.00
2023-01-17T07:33:26.605Z,100.00
2023-01-17T07:36:11.864Z,100.00
2023-01-17T07:38:56.668Z,100.00
2023-01-17T07:41:33.915Z,100.00
2023-01-17T07:44:16.184Z,100.00
2023-01-17T07:47:22.988Z,100.00
2023-01-17T07:50:07.230Z,100.00
2023-01-17T07:52:50.693Z,100.00
2023-01-17T07:55:40.734Z,100.00
2023-01-17T07:58:20.054Z,100.00
2023-01-17T08:00:49.545Z,100.00
2023-01-17T08:03:20.922Z,100.00
2023-01-17T08:05:57.069Z,100.00
2023-01-17T08:08:26.608Z,100.00
2023-01-17T08:10:55.277Z,100.00
2023-01-17T08:13:24.723Z,100.00
2023-01-17T08:15:54.570Z,100.00
2023-01-17T08:18:40.875Z,100.00
2023-01-17T08:21:37.190Z,100.00
2023-01-17T08:24:06.482Z,100.00
2023-01-17T08:26:36.221Z,100.00
2023-01-17T08:29:04.315Z,100.00
2023-01-17T08:31:35.770Z,100.00
2023-01-17T08:34:05.857Z,100.00
2023-01-17T08:36:36.689Z,100.00
2023-01-17T08:39:06.066Z,100.00
2023-01-17T08:41:36.793Z,100.00
2023-01-17T08:44:07.164Z,100.00
2023-01-17T08:46:42.535Z,100.00
2023-01-17T08:49:13.231Z,100.00
2023-01-17T08:51:42.696Z,100.00
2023-01-17T08:54:12.565Z,100.00
2023-01-17T08:56:40.405Z,99.95
2023-01-17T08:59:12.697Z,100.00
2023-01-17T09:01:48.016Z,99.70
2023-01-17T09:04:18.425Z,98.99
2023-01-17T09:06:48.241Z,98.87
2023-01-17T09:09:17.632Z,99.42
2023-01-17T09:11:45.152Z,99.73
2023-01-17T09:14:13.772Z,98.98
2023-01-17T09:16:42.812Z,99.67
2023-01-17T09:19:11.098Z,100.00
2023-01-17T09:21:40.277Z,100.00
2023-01-17T09:24:12.490Z,100.00
2023-01-17T09:26:44.623Z,99.11
2023-01-17T09:29:17.699Z,99.49
2023-01-17T09:31:49.173Z,98.83
2023-01-17T09:34:18.574Z,98.18
2023-01-17T09:36:47.503Z,98.36
2023-01-17T09:39:21.922Z,97.73
2023-01-17T09:42:05.574Z,97.84
2023-01-17T09:45:01.144Z,97.49
2023-01-17T09:47:49.080Z,97.73
2023-01-17T09:50:44.109Z,97.95
2023-01-17T09:53:18.273Z,97.24
2023-01-17T09:55:58.633Z,97.09
2023-01-17T09:58:33.140Z,98.03
2023-01-17T10:01:23.181Z,97.79
2023-01-17T10:04:42.406Z,98.17
2023-01-17T10:07:38.533Z,98.08
2023-01-17T10:10:33.090Z,98.58
2023-01-17T10:13:28.256Z,98.80
2023-01-17T10:16:30.292Z,98.67
2023-01-17T10:19:28.814Z,98.46
2023-01-17T10:22:10.673Z,97.73
2023-01-17T10:24:59.556Z,97.57
2023-01-17T10:28:00.579Z,97.55
2023-01-17T10:30:35.927Z,97.55
2023-01-17T10:33:16.566Z,97.72
2023-01-17T10:35:54.667Z,97.42
2023-01-17T10:38:29.088Z,97.60
2023-01-17T10:41:06.758Z,97.15
2023-01-17T10:43:52.752Z,97.69
2023-01-17T10:46:28.787Z,97.60
2023-01-17T10:48:58.324Z,97.16
2023-01-17T10:51:50.890Z,96.70
2023-01-17T10:54:36.406Z,96.69
2023-01-17T10:57:04.865Z,96.60
2023-01-17T10:59:38.134Z,96.82
2023-01-17T11:02:23.780Z,96.71
2023-01-17T11:04:54.875Z,97.13
2023-01-17T11:07:23.945Z,96.79
2023-01-17T11:09:54.514Z,97.14
2023-01-17T11:12:30.314Z,96.31
2023-01-17T11:15:00.009Z,96.76
2023-01-17T11:17:28.414Z,97.01
2023-01-17T11:20:13.245Z,96.53
2023-01-17T11:22:48.631Z,96.81
2023-01-17T11:25:24.269Z,96.68
2023-01-17T11:28:01.452Z,96.42
2023-01-17T11:30:29.212Z,96.81
2023-01-17T11:33:05.919Z,97.46
2023-01-17T11:35:41.087Z,96.99
2023-01-17T11:38:20.533Z,96.52
2023-01-17T11:40:50.596Z,96.97
2023-01-17T11:43:25.373Z,97.19
2023-01-17T11:46:02.179Z,96.47
2023-01-17T11:48:39.730Z,96.14
2023-01-17T11:51:21.520Z,96.25
2023-01-17T11:53:49.773Z,96.31
2023-01-17T11:56:29.090Z,96.28
2023-01-17T11:59:40.080Z,96.41
2023-01-17T12:02:44.352Z,96.35
2023-01-17T12:05:23.642Z,96.41
2023-01-17T12:08:24.905Z,96.57
2023-01-17T12:11:16.831Z,95.96
2023-01-17T12:14:21.146Z,96.08
2023-01-17T12:17:02.123Z,96.07
2023-01-17T12:24:14.584Z,96.81
2023-01-17T12:27:14.665Z,96.21
2023-01-17T12:29:52.546Z,96.37
2023-01-17T12:33:11.479Z,96.24
2023-01-17T12:35:45.408Z,96.05
2023-01-17T12:38:31.809Z,96.35
2023-01-17T12:41:31.265Z,96.21
2023-01-17T12:44:02.627Z,95.63
2023-01-17T12:46:59.317Z,95.30
2023-01-17T12:49:50.495Z,95.80
2023-01-17T12:52:27.285Z,96.06
2023-01-17T12:55:06.048Z,95.93
2023-01-17T12:57:41.754Z,96.16
2023-01-17T13:00:11.612Z,96.08
2023-01-17T13:02:55.037Z,95.84
2023-01-17T13:05:29.855Z,95.72
2023-01-17T13:08:41.055Z,95.51
2023-01-17T13:11:27.680Z,94.88
2023-01-17T13:13:57.673Z,93.80
2023-01-17T13:16:29.202Z,93.08
2023-01-17T13:19:04.166Z,93.73
2023-01-17T13:21:36.248Z,92.03
2023-01-17T13:24:07.399Z,89.54
2023-01-17T13:27:00.214Z,83.21
2023-01-17T13:29:57.689Z,84.26
2023-01-17T13:32:44.218Z,81.75
2023-01-17T13:35:48.322Z,82.99
2023-01-17T13:38:34.304Z,83.18
2023-01-17T13:41:30.244Z,83.32
2023-01-17T13:44:18.801Z,84.14
2023-01-17T13:47:01.097Z,85.18
2023-01-17T13:49:31.393Z,85.84
2023-01-17T13:52:11.876Z,86.52
2023-01-17T13:54:51.052Z,86.66
2023-01-17T13:57:46.307Z,86.92
2023-01-17T14:01:11.676Z,87.62
2023-01-17T14:03:57.032Z,87.76
2023-01-17T14:11:18.586Z,88.97
2023-01-17T14:14:56.746Z,89.55
2023-01-17T14:17:49.721Z,89.60
2023-01-17T14:20:55.201Z,90.18
2023-01-17T14:23:36.086Z,90.37
2023-01-17T14:26:44.276Z,90.54
2023-01-17T14:30:16.349Z,90.89
2023-01-17T14:33:03.742Z,91.33
2023-01-17T14:35:37.536Z,91.56
2023-01-17T14:38:18.515Z,91.75
2023-01-17T14:41:11.495Z,92.22
2023-01-17T14:43:43.294Z,92.28
2023-01-17T14:46:26.777Z,92.47
2023-01-17T14:49:06.710Z,92.59
2023-01-17T14:51:35.223Z,92.87
2023-01-17T14:54:17.112Z,93.13
2023-01-17T14:56:44.858Z,93.43
2023-01-17T14:59:16.938Z,93.68
2023-01-17T15:02:07.172Z,93.86
2023-01-17T15:04:39.030Z,94.21
2023-01-17T15:07:16.140Z,94.40
2023-01-17T15:09:46.789Z,94.62
2023-01-17T15:12:17.392Z,94.83
2023-01-17T15:14:46.260Z,94.79
2023-01-17T15:17:29.151Z,95.09
2023-01-17T15:23:08.183Z,95.58
2023-01-17T15:25:36.548Z,95.81
2023-01-17T15:28:05.163Z,95.90
2023-01-17T15:30:32.324Z,96.08
2023-01-17T15:32:59.470Z,96.37
2023-01-17T15:35:28.101Z,96.52
2023-01-17T15:37:57.874Z,96.72
2023-01-17T15:40:27.606Z,96.58
2023-01-17T15:43:00.402Z,96.67
2023-01-17T15:45:32.561Z,96.67
2023-01-17T15:48:36.121Z,96.93
2023-01-17T15:51:04.342Z,97.08
2023-01-17T15:53:39.161Z,97.20
2023-01-17T15:56:31.470Z,97.55
2023-01-17T15:59:26.808Z,97.74
2023-01-17T16:01:58.201Z,97.91
2023-01-17T16:04:34.005Z,98.02
2023-01-17T16:07:24.600Z,98.14
2023-01-17T16:09:52.048Z,98.38
2023-01-17T16:12:19.417Z,98.48
2023-01-17T16:15:02.776Z,98.48
2023-01-17T16:17:33.960Z,98.38
2023-01-17T16:20:01.637Z,98.44
2023-01-17T16:22:29.812Z,98.75
2023-01-17T16:25:01.595Z,98.92
2023-01-17T16:27:29.728Z,98.73
2023-01-17T16:29:57.155Z,98.68
2023-01-17T16:32:25.068Z,98.91
2023-01-17T16:34:55.001Z,98.72
2023-01-17T16:37:22.597Z,98.62
2023-01-17T16:39:50.817Z,98.95
2023-01-17T16:42:18.139Z,98.94
2023-01-17T16:44:45.790Z,98.94
2023-01-17T16:47:16.251Z,98.95
2023-01-17T16:49:43.448Z,99.35
2023-01-17T16:52:10.547Z,99.27
2023-01-17T16:54:37.523Z,99.48
2023-01-17T16:57:04.483Z,99.39
2023-01-17T16:59:42.530Z,99.14
2023-01-17T17:02:14.807Z,99.06
2023-01-17T17:04:42.380Z,99.21
2023-01-17T17:07:09.851Z,99.32
2023-01-17T17:09:37.239Z,99.52
2023-01-17T17:12:04.673Z,99.64
2023-01-17T17:14:35.372Z,99.88
2023-01-17T17:17:06.600Z,99.94
2023-01-17T17:19:39.070Z,99.87
2023-01-17T17:22:16.494Z,100.00
2023-01-17T17:25:49.553Z,100.00
2023-01-17T17:29:08.536Z,100.00
2023-01-17T17:42:11.859Z,100.00
2023-01-17T17:44:41.130Z,100.00
2023-01-17T17:47:56.188Z,100.00
2023-01-17T17:50:59.579Z,100.00
2023-01-17T17:53:41.083Z,100.00
2023-01-17T17:57:21.399Z,100.00
2023-01-17T17:59:55.701Z,100.00
2023-01-17T18:02:23.146Z,100.00
2023-01-17T18:04:58.247Z,100.00
2023-01-17T19:19:37.516Z,100.00
